Time;durP1;ratioP1;P1;durP2;ratioP2;P2;SDS_P1;SDS_P2;PMS_P1;PMS_P2;Temp;Humidity;BMP_temperature;BMP_pressure;BME280_temperature;BME280_humidity;BME280_pressure;Samples;Min_cycle;Max_cycle;Signal;HPM_P1;HPM_P2
2020/12/30 00:00:35;;;;;;;11.88;5.20;;;;;;;8.19;78.51;100319.05;1735238;82;21446;-53
2020/12/30 00:03:03;;;;;;;11.08;6.03;;;;;;;8.16;78.30;100326.34;1746470;82;21517;-55
2020/12/30 00:05:31;;;;;;;10.28;5.37;;;;;;;8.14;78.17;100331.17;1735180;82;21082;-56
2020/12/30 00:08:00;;;;;;;8.15;5.78;;;;;;;8.13;78.07;100328.18;1746556;82;21583;-56
2020/12/30 00:10:27;;;;;;;10.70;6.15;;;;;;;8.12;78.03;100328.44;1735255;81;21165;-55
2020/12/30 00:12:54;;;;;;;14.33;6.58;;;;;;;8.14;78.01;100331.17;1746541;82;21663;-57
2020/12/30 00:15:22;;;;;;;17.55;6.25;;;;;;;8.17;77.77;100337.45;1735176;82;21070;-55
2020/12/30 00:17:50;;;;;;;9.53;6.03;;;;;;;8.16;77.46;100333.62;1746497;82;21593;-56
2020/12/30 00:20:20;;;;;;;11.28;6.40;;;;;;;8.10;77.31;100338.15;1735252;82;21118;-56
2020/12/30 00:22:48;;;;;;;9.80;6.47;;;;;;;8.09;77.29;100346.00;1746543;82;21576;-54
2020/12/30 00:25:17;;;;;;;12.55;7.00;;;;;;;8.09;77.08;100351.95;1735173;82;21368;-57
2020/12/30 00:27:45;;;;;;;10.72;7.47;;;;;;;8.04;76.97;100346.74;1746454;82;21133;-56
2020/12/30 00:30:15;;;;;;;12.28;6.78;;;;;;;8.04;76.88;100348.63;1735236;82;20948;-54
2020/12/30 00:32:46;;;;;;;13.15;6.53;;;;;;;8.05;76.83;100355.15;1746523;82;21061;-57
2020/12/30 00:35:16;;;;;;;11.85;7.37;;;;;;;8.04;76.69;100363.00;1735284;82;21043;-61
2020/12/30 00:37:44;;;;;;;7.67;5.60;;;;;;;8.01;76.58;100363.52;1746507;82;21315;-56
2020/12/30 00:40:13;;;;;;;10.75;6.20;;;;;;;8.01;76.47;100354.56;1735109;82;21006;-57
2020/12/30 00:42:40;;;;;;;8.58;6.50;;;;;;;8.00;76.42;100351.55;1746490;82;21544;-55
2020/12/30 00:45:09;;;;;;;11.22;6.37;;;;;;;8.01;76.28;100342.37;1735199;82;20992;-56
2020/12/30 00:47:38;;;;;;;7.03;6.00;;;;;;;8.00;75.92;100348.84;1746684;82;21575;-57
2020/12/30 00:50:06;;;;;;;8.38;5.95;;;;;;;7.94;75.71;100347.94;1735323;82;21214;-55
2020/12/30 00:52:35;;;;;;;7.33;6.00;;;;;;;7.78;75.60;100329.28;1746559;82;21096;-57
2020/12/30 00:55:04;;;;;;;7.87;6.40;;;;;;;7.78;75.61;100344.17;1708108;82;21083;-57
2020/12/30 00:57:33;;;;;;;6.40;5.53;;;;;;;7.74;75.65;100349.80;1745426;82;20978;-56
2020/12/30 01:00:01;;;;;;;7.55;6.00;;;;;;;7.71;75.56;100351.66;1748767;81;21467;-57
2020/12/30 01:02:31;;;;;;;7.17;5.90;;;;;;;7.67;75.35;100349.69;1769024;81;21400;-56
2020/12/30 01:05:00;;;;;;;8.80;5.95;;;;;;;7.66;75.14;100356.17;1752754;81;21021;-57
2020/12/30 01:07:27;;;;;;;9.55;6.37;;;;;;;7.63;75.02;100345.28;1773295;81;21598;-58
2020/12/30 01:09:55;;;;;;;8.40;6.62;;;;;;;7.61;74.95;100347.97;1752734;81;21097;-56
2020/12/30 01:12:22;;;;;;;7.55;6.53;;;;;;;7.57;74.97;100345.45;1773434;81;21077;-58
2020/12/30 01:14:50;;;;;;;8.10;6.42;;;;;;;7.52;74.87;100349.71;1752812;81;21395;-58
2020/12/30 01:17:18;;;;;;;7.25;5.87;;;;;;;7.48;75.03;100347.20;1773296;81;21551;-57
2020/12/30 01:19:46;;;;;;;10.08;7.53;;;;;;;7.50;75.29;100350.50;1752801;81;21471;-56
2020/12/30 01:22:14;;;;;;;12.68;8.00;;;;;;;7.53;75.64;100347.82;1773270;81;21088;-56
2020/12/30 01:24:41;;;;;;;12.70;7.78;;;;;;;7.60;75.68;100340.34;1752862;81;20894;-56
2020/12/30 01:27:09;;;;;;;8.55;7.45;;;;;;;7.68;75.67;100344.55;1773307;81;21155;-58
2020/12/30 01:29:37;;;;;;;8.68;7.50;;;;;;;7.74;75.54;100340.85;1752661;81;21029;-57
2020/12/30 01:32:05;;;;;;;8.33;6.87;;;;;;;7.75;75.48;100341.13;1773300;81;20930;-56
2020/12/30 01:34:33;;;;;;;8.03;6.62;;;;;;;7.75;75.24;100340.59;1752749;81;21060;-56
2020/12/30 01:37:01;;;;;;;8.93;7.20;;;;;;;7.77;75.06;100340.38;1773260;81;21559;-57
2020/12/30 01:39:28;;;;;;;11.75;6.90;;;;;;;7.74;74.93;100338.96;1752699;81;23626;-56
2020/12/30 01:41:59;;;;;;;9.90;6.95;;;;;;;7.67;74.65;100342.37;1773218;81;20961;-55
2020/12/30 01:44:27;;;;;;;19.35;7.55;;;;;;;7.51;74.65;100337.78;1752606;81;21048;-54
2020/12/30 01:46:59;;;;;;;8.13;6.55;;;;;;;7.37;75.08;100350.80;1773301;81;21028;-55
2020/12/30 01:49:27;;;;;;;8.08;7.08;;;;;;;7.25;75.51;100345.99;1725334;81;21151;-52
2020/12/30 01:51:55;;;;;;;12.28;6.90;;;;;;;7.16;75.82;100326.61;1773229;81;22148;-53
2020/12/30 01:54:23;;;;;;;9.85;7.62;;;;;;;7.10;75.93;100329.48;1752685;81;21187;-53
2020/12/30 01:56:50;;;;;;;10.00;7.45;;;;;;;7.05;76.29;100324.80;1745156;81;21159;-54
2020/12/30 01:59:19;;;;;;;12.90;8.23;;;;;;;6.99;76.43;100327.09;1751578;81;20997;-56
2020/12/30 02:02:06;;;;;;;16.15;8.58;;;;;;;6.93;76.70;100332.94;1759199;81;21192;-56
2020/12/30 02:04:41;;;;;;;20.70;7.45;;;;;;;6.93;76.70;100327.53;1749655;82;22360;-56
2020/12/30 02:07:09;;;;;;;16.97;6.92;;;;;;;6.93;76.60;100324.82;1759095;81;21171;-57
2020/12/30 02:09:40;;;;;;;14.60;8.33;;;;;;;6.90;76.69;100329.38;1749508;82;21041;-56
2020/12/30 02:12:08;;;;;;;12.05;6.97;;;;;;;6.88;76.90;100319.31;1759186;81;21122;-55
2020/12/30 02:14:37;;;;;;;12.45;7.90;;;;;;;6.90;77.06;100316.39;1749598;81;21501;-56
2020/12/30 02:17:05;;;;;;;26.23;8.85;;;;;;;6.89;77.08;100315.55;1759172;81;21385;-55
2020/12/30 02:19:33;;;;;;;41.23;9.03;;;;;;;6.89;77.24;100314.73;1749487;82;21516;-55
2020/12/30 02:22:04;;;;;;;38.30;8.23;;;;;;;6.84;77.05;100316.80;1759134;81;20958;-55
2020/12/30 02:24:35;;;;;;;23.75;8.50;;;;;;;6.82;77.45;100315.41;1749503;82;21104;-54
2020/12/30 02:27:05;;;;;;;18.57;7.80;;;;;;;6.85;77.89;100310.35;1759142;81;21146;-53
2020/12/30 02:29:34;;;;;;;32.45;8.35;;;;;;;6.89;78.14;100316.08;1749541;82;21372;-53
2020/12/30 02:32:03;;;;;;;14.05;9.23;;;;;;;6.91;78.10;100311.27;1759157;81;20974;-55
2020/12/30 02:34:31;;;;;;;12.37;7.50;;;;;;;6.91;78.07;100316.67;1749581;82;21135;-55
2020/12/30 02:36:58;;;;;;;44.20;9.48;;;;;;;6.91;78.11;100322.08;1759123;81;21144;-56
2020/12/30 02:39:26;;;;;;;36.85;9.13;;;;;;;6.80;78.08;100327.02;1749466;82;21513;-55
2020/12/30 02:41:53;;;;;;;26.82;8.38;;;;;;;6.80;78.08;100327.02;1759135;81;21708;-55
2020/12/30 02:44:21;;;;;;;17.87;7.95;;;;;;;6.79;78.01;100322.11;1749543;82;21140;-56
2020/12/30 02:46:49;;;;;;;28.92;8.53;;;;;;;6.80;78.01;100335.13;1759156;81;21021;-55
2020/12/30 02:49:16;;;;;;;21.33;8.45;;;;;;;6.81;78.07;100332.17;1749573;82;21064;-55
2020/12/30 02:51:46;;;;;;;33.00;9.20;;;;;;;6.85;78.08;100329.28;1759158;81;21539;-55
2020/12/30 02:54:14;;;;;;;35.35;9.20;;;;;;;6.83;78.10;100325.98;1749486;82;21266;-55
2020/12/30 02:56:41;;;;;;;25.62;9.13;;;;;;;6.81;78.09;100315.13;1759102;81;20985;-55
2020/12/30 02:59:09;;;;;;;19.52;8.48;;;;;;;6.83;78.12;100320.57;1749648;81;21108;-52
2020/12/30 03:01:37;;;;;;;15.32;7.92;;;;;;;6.84;78.19;100305.98;1773247;81;21036;-53
2020/12/30 03:04:05;;;;;;;15.03;8.03;;;;;;;6.88;78.19;100307.68;1752697;81;20954;-52
2020/12/30 03:06:33;;;;;;;12.85;8.18;;;;;;;6.85;78.23;100300.89;1773173;81;21211;-54
2020/12/30 03:09:00;;;;;;;35.92;9.10;;;;;;;6.86;78.40;100310.63;1752584;81;20990;-53
2020/12/30 03:11:28;;;;;;;27.58;8.93;;;;;;;6.88;78.34;100307.15;1773289;81;21145;-53
2020/12/30 03:13:56;;;;;;;25.95;9.13;;;;;;;6.91;78.27;100309.91;1752635;81;21496;-53
2020/12/30 03:16:24;;;;;;;12.45;8.30;;;;;;;6.97;77.98;100310.30;1773222;81;21064;-52
2020/12/30 03:18:52;;;;;;;15.10;8.23;;;;;;;7.01;77.87;100306.05;1752681;81;21466;-54
2020/12/30 03:21:19;;;;;;;13.10;8.60;;;;;;;7.01;77.79;100301.98;1773129;81;21156;-53
2020/12/30 03:23:47;;;;;;;24.67;8.70;;;;;;;6.98;77.81;100292.46;1752735;81;21504;-55
2020/12/30 03:26:14;;;;;;;21.60;8.43;;;;;;;6.98;77.72;100292.99;1773158;81;20893;-54
2020/12/30 03:28:43;;;;;;;16.40;8.13;;;;;;;6.96;77.50;100289.72;1752686;81;21064;-54
2020/12/30 03:31:11;;;;;;;9.95;7.78;;;;;;;6.93;77.39;100284.25;1773252;81;21382;-54
2020/12/30 03:33:38;;;;;;;9.83;6.95;;;;;;;6.90;77.35;100279.88;1752664;81;21024;-53
2020/12/30 03:36:06;;;;;;;8.70;7.72;;;;;;;6.84;77.49;100282.99;1773168;81;20953;-51
2020/12/30 03:38:34;;;;;;;9.43;7.83;;;;;;;6.83;77.60;100294.06;1752586;81;21135;-52
2020/12/30 03:41:01;;;;;;;8.10;7.35;;;;;;;6.88;77.66;100300.92;1773203;81;21115;-55
2020/12/30 03:43:29;;;;;;;7.17;6.53;;;;;;;6.91;77.56;100295.04;1752628;81;21218;-54
2020/12/30 03:45:57;;;;;;;8.33;7.45;;;;;;;6.91;77.64;100299.09;1773095;81;21591;-55
2020/12/30 03:48:26;;;;;;;8.33;7.30;;;;;;;6.92;77.57;100297.49;1752602;81;20925;-53
2020/12/30 03:50:53;;;;;;;7.78;7.08;;;;;;;6.93;77.45;100294.25;1773162;81;21056;-52
2020/12/30 03:53:21;;;;;;;7.60;6.90;;;;;;;6.94;77.38;100296.70;1752632;81;21052;-53
2020/12/30 03:55:49;;;;;;;7.55;6.80;;;;;;;6.95;77.12;100300.27;1773166;81;21218;-51
2020/12/30 03:58:17;;;;;;;7.92;7.17;;;;;;;6.94;76.82;100295.89;1752544;81;21580;-52
2020/12/30 04:00:46;;;;;;;7.22;6.53;;;;;;;6.90;76.76;100300.16;1768757;81;21489;-52
2020/12/30 04:03:13;;;;;;;7.40;6.70;;;;;;;6.86;76.80;100290.35;1735173;82;21194;-54
2020/12/30 04:05:40;;;;;;;8.00;6.75;;;;;;;6.87;76.91;100297.39;1746520;82;21136;-52
2020/12/30 04:08:08;;;;;;;8.10;7.30;;;;;;;6.86;76.53;100301.70;1735206;82;21333;-53
2020/12/30 04:10:35;;;;;;;7.25;6.55;;;;;;;6.84;76.64;100305.98;1746479;82;20974;-52
2020/12/30 04:13:03;;;;;;;7.72;7.03;;;;;;;6.86;76.51;100313.34;1735190;82;20956;-53
2020/12/30 04:15:32;;;;;;;8.10;7.30;;;;;;;6.88;76.53;100311.20;1746469;82;21041;-53
2020/12/30 04:17:59;;;;;;;8.00;7.20;;;;;;;6.96;76.55;100319.48;1735211;82;21555;-53
2020/12/30 04:20:27;;;;;;;8.43;7.58;;;;;;;7.06;76.27;100316.14;1746726;82;21963;-53
2020/12/30 04:22:54;;;;;;;8.18;6.65;;;;;;;7.09;76.16;100308.88;1735273;82;21078;-55
2020/12/30 04:25:23;;;;;;;8.08;7.28;;;;;;;7.14;76.08;100313.02;1746657;82;21085;-54
2020/12/30 04:27:51;;;;;;;8.35;7.53;;;;;;;7.13;76.00;100314.91;1735240;82;20976;-53
2020/12/30 04:30:19;;;;;;;9.65;8.68;;;;;;;7.11;76.11;100320.30;1746653;82;21081;-52
2020/12/30 04:32:48;;;;;;;11.80;8.75;;;;;;;7.10;76.05;100318.13;1735370;82;22383;-55
2020/12/30 04:35:15;;;;;;;16.65;8.65;;;;;;;7.06;76.00;100314.25;1746573;82;20958;-52
2020/12/30 04:37:43;;;;;;;14.55;8.15;;;;;;;7.04;75.96;100312.30;1735370;82;21482;-53
2020/12/30 04:40:12;;;;;;;10.43;8.53;;;;;;;6.97;75.97;100313.81;1746558;82;21101;-53
2020/12/30 04:42:39;;;;;;;10.85;8.25;;;;;;;6.90;76.23;100325.86;1735259;81;21043;-53
2020/12/30 04:45:09;;;;;;;9.18;8.23;;;;;;;6.86;76.56;100324.69;1746620;82;21446;-53
2020/12/30 04:47:37;;;;;;;9.15;8.30;;;;;;;6.89;76.69;100338.53;1735269;82;21197;-56
2020/12/30 04:50:06;;;;;;;9.83;8.40;;;;;;;6.87;76.89;100340.67;1746532;82;20950;-56
2020/12/30 04:52:34;;;;;;;13.03;7.83;;;;;;;6.91;76.86;100341.02;1735221;81;20936;-56
2020/12/30 04:55:01;;;;;;;18.00;8.30;;;;;;;6.95;76.79;100347.59;1721298;82;21572;-54
2020/12/30 04:57:46;;;;;;;12.00;8.30;;;;;;;6.95;76.66;100344.36;1735262;81;21208;-56
2020/12/30 05:00:14;;;;;;;8.90;8.00;;;;;;;6.93;76.53;100330.23;1739254;81;21066;-55
2020/12/30 05:02:48;;;;;;;11.05;8.50;;;;;;;6.90;76.51;100329.91;1759164;81;21084;-54
2020/12/30 05:05:17;;;;;;;9.50;8.48;;;;;;;6.86;76.47;100324.69;1749540;82;21064;-54
2020/12/30 05:07:45;;;;;;;9.98;8.03;;;;;;;6.86;76.45;100332.27;1759202;81;21076;-53
2020/12/30 05:10:15;;;;;;;16.93;7.95;;;;;;;6.85;76.34;100332.52;1749550;82;21388;-53
2020/12/30 05:12:43;;;;;;;11.73;6.97;;;;;;;6.80;76.43;100332.42;1729207;81;21124;-53
2020/12/30 05:15:11;;;;;;;9.23;7.53;;;;;;;6.78;76.41;100335.87;1749611;82;21529;-53
2020/12/30 05:17:39;;;;;;;11.45;8.13;;;;;;;6.73;76.38;100332.54;1759093;81;21044;-55
2020/12/30 05:20:10;;;;;;;9.53;7.70;;;;;;;6.72;76.57;100334.42;1749410;82;21615;-54
2020/12/30 05:22:38;;;;;;;13.72;8.15;;;;;;;6.74;76.66;100331.47;1759283;81;22058;-55
2020/12/30 05:25:06;;;;;;;22.48;8.50;;;;;;;6.72;76.76;100339.83;1749448;82;21089;-54
2020/12/30 05:27:36;;;;;;;9.75;7.33;;;;;;;6.64;76.69;100341.58;1759172;81;21065;-55
2020/12/30 05:31:13;;;;;;;7.90;7.10;;;;;;;6.61;76.98;100334.47;1804078;79;23811;-56
2020/12/30 05:33:41;;;;;;;8.58;7.78;;;;;;;6.55;77.03;100338.95;1770742;80;21008;-57
2020/12/30 05:36:10;;;;;;;8.95;8.05;;;;;;;6.54;77.17;100337.31;1771191;80;21375;-56
2020/12/30 05:38:38;;;;;;;10.13;9.05;;;;;;;6.56;77.33;100328.42;1767132;80;21991;-58
2020/12/30 05:41:18;;;;;;;10.10;8.83;;;;;;;6.64;77.30;100338.02;1766833;80;21107;-57
2020/12/30 05:43:46;;;;;;;8.00;7.20;;;;;;;6.66;77.05;100339.98;1762003;80;20963;-56
2020/12/30 05:46:27;;;;;;;8.25;7.33;;;;;;;6.65;76.91;100345.10;1764539;80;21087;-57
2020/12/30 05:48:55;;;;;;;7.55;6.90;;;;;;;6.60;76.76;100341.76;1775577;80;21192;-51
2020/12/30 05:51:29;;;;;;;9.23;8.23;;;;;;;6.55;76.81;100348.95;1783294;80;21674;-55
2020/12/30 05:54:10;;;;;;;8.23;7.42;;;;;;;6.47;76.84;100346.06;1753241;81;21483;-53
2020/12/30 05:56:39;;;;;;;12.93;7.45;;;;;;;6.40;77.04;100355.66;1753075;81;21044;-52
2020/12/30 05:59:07;;;;;;;6.65;6.03;;;;;;;6.35;77.25;100346.63;1752817;81;20905;-54
2020/12/30 06:01:36;;;;;;;6.67;6.08;;;;;;;6.31;77.24;100349.51;1752368;80;21484;-53
2020/12/30 06:04:19;;;;;;;6.20;5.70;;;;;;;6.22;77.31;100342.28;1751607;81;21168;-56
2020/12/30 06:06:47;;;;;;;7.90;7.10;;;;;;;6.19;77.48;100345.47;1751669;80;21162;-53
2020/12/30 06:09:17;;;;;;;7.40;6.80;;;;;;;6.18;77.51;100347.86;1751650;81;21047;-55
2020/12/30 06:11:54;;;;;;;7.53;6.72;;;;;;;6.16;77.62;100350.80;1751571;81;21199;-53
2020/12/30 06:14:22;;;;;;;8.25;7.45;;;;;;;6.13;77.68;100344.54;1751505;81;22202;-51
2020/12/30 06:16:54;;;;;;;7.60;6.78;;;;;;;6.11;77.82;100342.58;1751972;81;21099;-51
2020/12/30 06:19:21;;;;;;;6.65;5.80;;;;;;;6.10;77.91;100345.00;1724899;81;21187;-52
2020/12/30 06:21:49;;;;;;;7.15;6.45;;;;;;;6.12;77.92;100349.63;1725746;81;21052;-52
2020/12/30 06:24:17;;;;;;;7.45;6.75;;;;;;;6.18;78.00;100343.30;1752991;81;20904;-52
2020/12/30 06:26:44;;;;;;;9.28;7.00;;;;;;;6.24;78.01;100354.51;1752269;81;21785;-51
2020/12/30 06:29:16;;;;;;;8.50;7.30;;;;;;;6.31;78.15;100352.20;1750989;81;21169;-53
2020/12/30 06:31:48;;;;;;;8.33;7.53;;;;;;;6.38;78.08;100352.36;1739480;82;21558;-51
2020/12/30 06:34:16;;;;;;;8.03;7.05;;;;;;;6.44;77.89;100342.51;1738808;81;21159;-52
2020/12/30 06:36:45;;;;;;;6.67;5.97;;;;;;;6.47;77.66;100342.02;1738703;82;21642;-53
2020/12/30 06:39:21;;;;;;;7.72;6.20;;;;;;;6.54;77.49;100336.47;1738602;82;21441;-54
2020/12/30 06:42:00;;;;;;;7.42;6.72;;;;;;;6.57;77.53;100331.41;1738277;82;21216;-51
2020/12/30 06:44:39;;;;;;;8.28;7.03;;;;;;;6.64;77.49;100342.08;1739260;82;21163;-53
2020/12/30 06:47:15;;;;;;;7.73;6.93;;;;;;;6.71;77.42;100338.20;1873643;75;23627;-53
2020/12/30 06:49:42;;;;;;;7.22;6.30;;;;;;;6.71;77.40;100336.84;1841580;78;20935;-51
2020/12/30 06:52:28;;;;;;;5.70;5.20;;;;;;;6.76;77.36;100330.72;1831011;77;21229;-55
2020/12/30 06:54:56;;;;;;;7.28;6.37;;;;;;;6.80;77.26;100334.59;1808768;79;21050;-54
2020/12/30 06:57:41;;;;;;;7.75;6.37;;;;;;;6.79;77.11;100334.27;1808572;78;20951;-53
2020/12/30 07:00:35;;;;;;;7.42;6.42;;;;;;;6.78;77.06;100328.58;1808336;79;21045;-53
2020/12/30 07:03:18;;;;;;;7.72;6.72;;;;;;;6.80;77.10;100332.42;1808596;78;20900;-51
2020/12/30 07:05:46;;;;;;;6.90;5.67;;;;;;;6.81;77.09;100338.93;1808465;79;21359;-52
2020/12/30 07:08:37;;;;;;;7.12;6.35;;;;;;;6.83;77.57;100342.73;1776541;80;20955;-53
2020/12/30 07:11:05;;;;;;;6.17;5.58;;;;;;;6.90;78.58;100343.44;1791099;79;21006;-50
2020/12/30 07:13:43;;;;;;;9.05;6.12;;;;;;;7.06;78.07;100339.95;1819242;78;21291;-50
2020/12/30 07:16:19;;;;;;;7.12;6.42;;;;;;;7.12;77.41;100339.52;1762669;78;21023;-49
2020/12/30 07:18:49;;;;;;;7.22;6.53;;;;;;;7.14;77.23;100339.55;1776287;80;21573;-49
2020/12/30 07:21:17;;;;;;;6.55;5.95;;;;;;;7.16;77.05;100344.73;1794194;78;21072;-53
2020/12/30 07:23:45;;;;;;;7.47;5.85;;;;;;;7.15;76.94;100351.22;1807978;78;21010;-48
2020/12/30 07:26:20;;;;;;;5.25;4.83;;;;;;;7.12;76.72;100342.22;1808118;78;21006;-48
2020/12/30 07:28:48;;;;;;;5.77;5.20;;;;;;;7.11;76.67;100346.00;1807969;79;21172;-50
2020/12/30 07:31:17;;;;;;;9.90;7.53;;;;;;;7.08;76.58;100340.52;1754946;80;21378;-49
2020/12/30 07:33:45;;;;;;;7.17;5.67;;;;;;;7.05;76.62;100345.08;1758990;80;20962;-50
2020/12/30 07:36:12;;;;;;;5.83;5.22;;;;;;;7.01;76.63;100339.86;1758977;81;21557;-51
2020/12/30 07:38:40;;;;;;;9.43;5.10;;;;;;;6.99;76.69;100346.02;1759047;81;21187;-51
2020/12/30 07:41:09;;;;;;;10.28;5.28;;;;;;;6.98;76.53;100345.74;1758908;80;21608;-53
2020/12/30 07:43:53;;;;;;;5.42;4.92;;;;;;;6.93;76.55;100345.64;1727541;81;22116;-50
2020/12/30 07:46:23;;;;;;;5.50;4.85;;;;;;;6.90;76.64;100342.91;1753335;80;20936;-50
2020/12/30 07:48:51;;;;;;;6.97;5.47;;;;;;;6.90;76.87;100332.09;1756222;81;20920;-50
2020/12/30 07:51:19;;;;;;;5.83;5.08;;;;;;;6.94;76.94;100333.75;1756224;81;21190;-52
2020/12/30 07:53:52;;;;;;;7.25;5.80;;;;;;;6.96;77.00;100325.70;1756463;81;21282;-51
2020/12/30 07:56:24;;;;;;;6.45;5.55;;;;;;;6.97;77.02;100320.58;1756384;80;21389;-50
2020/12/30 07:58:52;;;;;;;6.65;4.75;;;;;;;6.99;77.10;100321.68;1755731;81;21118;-49
2020/12/30 08:01:20;;;;;;;7.00;5.78;;;;;;;7.00;77.09;100328.22;1755871;81;21047;-49
2020/12/30 08:03:48;;;;;;;7.53;5.10;;;;;;;7.00;77.12;100329.58;1755351;80;21165;-49
2020/12/30 08:06:17;;;;;;;5.10;4.70;;;;;;;7.03;77.16;100331.77;1764179;80;21179;-50
2020/12/30 08:08:46;;;;;;;6.55;4.85;;;;;;;7.07;77.28;100333.48;1768275;81;21374;-49
2020/12/30 08:11:20;;;;;;;5.62;4.33;;;;;;;7.14;77.21;100333.31;1756310;80;21620;-50
2020/12/30 08:13:49;;;;;;;5.83;5.12;;;;;;;7.19;77.27;100327.46;1755773;81;21011;-50
2020/12/30 08:16:17;;;;;;;8.05;5.05;;;;;;;7.22;77.20;100322.11;1706851;81;21671;-52
2020/12/30 08:18:51;;;;;;;5.35;4.85;;;;;;;7.25;77.17;100321.11;1755556;81;21083;-51
2020/12/30 08:21:22;;;;;;;5.45;4.80;;;;;;;7.28;77.17;100321.95;1763986;80;21202;-52
2020/12/30 08:24:10;;;;;;;6.15;5.47;;;;;;;7.31;77.21;100322.55;1755622;81;21035;-51
2020/12/30 08:26:38;;;;;;;6.50;5.22;;;;;;;7.34;77.24;100324.75;1752685;80;21003;-47
2020/12/30 08:29:06;;;;;;;6.33;4.67;;;;;;;7.38;77.25;100324.02;1728723;81;21639;-47
2020/12/30 08:31:42;;;;;;;7.20;5.85;;;;;;;7.43;77.22;100320.04;1753846;80;21137;-48
2020/12/30 08:34:10;;;;;;;5.92;5.28;;;;;;;7.50;77.24;100321.23;1755154;81;21632;-50
2020/12/30 08:36:40;;;;;;;5.85;5.15;;;;;;;7.58;77.15;100320.02;1747588;81;21042;-51
2020/12/30 08:39:08;;;;;;;6.92;5.20;;;;;;;7.64;77.07;100316.31;1763757;81;21003;-50
2020/12/30 08:41:42;;;;;;;6.75;5.33;;;;;;;7.70;76.82;100318.03;1746448;80;21206;-52
2020/12/30 08:44:09;;;;;;;5.97;4.87;;;;;;;7.75;76.64;100320.28;1762957;80;21015;-49
2020/12/30 08:46:40;;;;;;;4.28;3.90;;;;;;;7.80;76.50;100333.91;1764005;80;22103;-52
2020/12/30 08:49:10;;;;;;;6.03;4.62;;;;;;;7.80;76.48;100325.78;1747191;81;21094;-49
2020/12/30 08:51:37;;;;;;;4.90;4.35;;;;;;;7.84;76.48;100328.00;1738699;81;21119;-49
2020/12/30 08:54:19;;;;;;;5.22;4.58;;;;;;;7.86;76.59;100325.89;1763940;81;21205;-51
2020/12/30 08:56:50;;;;;;;6.35;5.33;;;;;;;7.88;76.61;100325.09;1769296;79;21188;-57
2020/12/30 08:59:22;;;;;;;5.45;4.65;;;;;;;7.89;76.91;100322.66;1764323;81;22095;-50
2020/12/30 09:01:51;;;;;;;7.75;5.28;;;;;;;7.88;77.11;100319.67;1793478;79;21146;-54
2020/12/30 09:04:19;;;;;;;5.58;4.15;;;;;;;7.90;77.60;100316.99;1767725;81;21183;-57
2020/12/30 09:06:50;;;;;;;6.72;4.72;;;;;;;7.94;77.74;100319.50;1773912;80;21861;-50
2020/12/30 09:09:19;;;;;;;6.37;4.97;;;;;;;7.97;77.83;100323.08;1772406;79;21570;-55
2020/12/30 09:11:49;;;;;;;9.20;5.78;;;;;;;8.01;77.69;100316.63;1768216;81;21368;-54
2020/12/30 09:14:22;;;;;;;7.12;5.35;;;;;;;8.03;77.72;100322.61;1764055;81;21051;-50
2020/12/30 09:17:02;;;;;;;5.60;4.90;;;;;;;8.08;77.86;100323.22;1768707;80;21127;-48
2020/12/30 09:19:29;;;;;;;7.85;5.25;;;;;;;8.09;77.82;100327.03;1763539;81;21027;-52
2020/12/30 09:22:11;;;;;;;5.85;4.78;;;;;;;8.12;77.68;100326.55;1755314;81;21182;-49
2020/12/30 09:24:43;;;;;;;5.83;4.35;;;;;;;8.14;77.92;100327.64;1755584;81;21202;-51
2020/12/30 09:27:22;;;;;;;7.83;4.92;;;;;;;8.19;78.31;100329.06;1763810;81;21081;-56
2020/12/30 09:30:11;;;;;;;6.97;5.12;;;;;;;8.24;78.14;100313.69;1764691;80;20963;-53
2020/12/30 09:32:47;;;;;;;7.33;4.73;;;;;;;8.33;78.07;100318.97;1888018;76;26631;-51
2020/12/30 09:35:18;;;;;;;8.90;5.47;;;;;;;8.32;78.04;100316.52;1774527;80;21033;-54
2020/12/30 09:37:58;;;;;;;6.87;4.87;;;;;;;8.32;78.12;100313.27;1848947;77;21364;-54
2020/12/30 09:40:29;;;;;;;7.53;5.37;;;;;;;8.38;77.86;100304.70;1849121;77;20985;-55
2020/12/30 09:43:12;;;;;;;8.90;5.83;;;;;;;8.40;77.54;100307.15;1849204;77;20913;-53
2020/12/30 09:45:43;;;;;;;7.75;6.17;;;;;;;8.41;77.51;100302.00;1849318;77;21159;-55
2020/12/30 09:48:19;;;;;;;10.63;6.40;;;;;;;8.43;77.40;100303.95;1829871;77;21055;-57
2020/12/30 09:50:50;;;;;;;9.20;5.83;;;;;;;8.40;77.42;100285.46;1828878;76;22097;-53
2020/12/30 09:53:18;;;;;;;7.47;5.78;;;;;;;8.50;77.15;100299.14;1818976;77;21117;-56
2020/12/30 09:55:47;;;;;;;7.17;5.75;;;;;;;8.49;77.03;100291.55;1806181;79;21203;-56
2020/12/30 09:58:15;;;;;;;8.83;5.60;;;;;;;8.50;76.94;100291.83;1794176;79;21162;-51
2020/12/30 10:00:43;;;;;;;9.80;5.60;;;;;;;8.52;76.63;100294.30;1794292;80;21110;-54
2020/12/30 10:03:11;;;;;;;7.22;5.37;;;;;;;8.50;76.72;100291.01;1794239;79;21636;-52
2020/12/30 10:05:38;;;;;;;7.25;4.80;;;;;;;8.55;76.91;100291.89;1790889;79;22223;-54
2020/12/30 10:08:06;;;;;;;6.00;4.50;;;;;;;8.61;76.58;100289.23;1781659;78;21546;-59
2020/12/30 10:10:35;;;;;;;6.55;4.65;;;;;;;8.63;76.40;100284.39;1777741;80;21221;-57
2020/12/30 10:13:03;;;;;;;4.25;3.85;;;;;;;8.64;76.31;100276.00;1777051;78;21213;-56
2020/12/30 10:15:32;;;;;;;7.20;4.55;;;;;;;8.61;76.18;100265.64;1776215;78;21175;-55
2020/12/30 10:18:01;;;;;;;5.03;3.85;;;;;;;8.63;76.18;100265.41;1776879;80;21245;-56
2020/12/30 10:20:29;;;;;;;5.95;4.50;;;;;;;8.64;76.10;100253.48;1777160;80;21213;-52
2020/12/30 10:22:56;;;;;;;6.85;5.08;;;;;;;8.63;76.04;100268.13;1778760;79;21182;-54
2020/12/30 10:25:24;;;;;;;9.45;5.25;;;;;;;8.62;75.92;100264.59;1802760;79;21092;-56
2020/12/30 10:27:52;;;;;;;7.53;4.28;;;;;;;8.60;75.86;100265.91;1803288;79;21189;-59
2020/12/30 10:30:20;;;;;;;5.17;3.87;;;;;;;8.59;75.97;100265.09;1789131;79;21166;-55
2020/12/30 10:32:49;;;;;;;4.58;3.87;;;;;;;8.62;75.93;100269.17;1806595;78;21012;-57
2020/12/30 10:35:17;;;;;;;7.28;4.80;;;;;;;8.64;75.83;100256.20;1809518;79;21127;-54
2020/12/30 10:37:45;;;;;;;4.28;3.20;;;;;;;8.63;75.97;100247.24;1809357;78;21619;-51
2020/12/30 10:40:12;;;;;;;6.03;4.45;;;;;;;8.70;75.83;100251.10;1809616;79;21634;-55
2020/12/30 10:42:40;;;;;;;8.25;4.70;;;;;;;8.68;75.70;100229.67;1809198;79;21166;-52
2020/12/30 10:45:08;;;;;;;5.90;4.33;;;;;;;8.68;75.53;100242.41;1809077;79;21998;-54
2020/12/30 10:47:36;;;;;;;6.35;4.37;;;;;;;8.70;75.59;100236.19;1809056;79;21045;-49
2020/12/30 10:50:04;;;;;;;5.53;3.83;;;;;;;8.73;75.53;100237.05;1798622;79;21423;-52
2020/12/30 10:52:32;;;;;;;5.42;3.22;;;;;;;8.75;75.65;100243.02;1778478;79;21326;-51
2020/12/30 10:54:59;;;;;;;5.62;4.10;;;;;;;8.79;75.57;100229.23;1799464;79;20965;-50
2020/12/30 10:57:27;;;;;;;8.68;5.33;;;;;;;8.78;75.58;100228.41;1803968;79;21175;-55
2020/12/30 10:59:55;;;;;;;4.47;3.98;;;;;;;8.82;75.92;100228.73;1808853;79;21172;-51
2020/12/30 11:02:24;;;;;;;6.20;4.50;;;;;;;8.94;76.20;100229.38;1809035;78;21135;-51
2020/12/30 11:04:51;;;;;;;6.70;4.65;;;;;;;9.03;75.91;100227.03;1808850;79;21624;-49
2020/12/30 11:07:19;;;;;;;6.58;4.62;;;;;;;9.06;75.61;100224.59;1813985;78;21020;-50
2020/12/30 11:09:49;;;;;;;7.67;5.05;;;;;;;9.08;75.45;100217.58;1798051;79;21527;-52
2020/12/30 11:12:17;;;;;;;7.42;5.05;;;;;;;9.08;75.56;100210.79;1797275;79;21016;-51
2020/12/30 11:14:45;;;;;;;9.73;6.08;;;;;;;9.08;75.51;100207.53;1822810;78;21198;-50
2020/12/30 11:17:13;;;;;;;11.05;6.25;;;;;;;9.09;75.42;100205.63;1810391;78;21402;-52
2020/12/30 11:19:40;;;;;;;12.43;6.20;;;;;;;9.06;75.24;100212.38;1808939;79;21111;-50
2020/12/30 11:22:08;;;;;;;10.55;6.12;;;;;;;9.01;75.36;100205.55;1808771;79;21049;-50
2020/12/30 11:24:37;;;;;;;9.00;5.87;;;;;;;8.99;75.74;100207.72;1799928;79;21160;-51
2020/12/30 11:27:05;;;;;;;10.05;5.35;;;;;;;8.94;75.81;100213.09;1716307;83;21181;-54
2020/12/30 11:29:34;;;;;;;9.13;5.12;;;;;;;8.91;76.05;100209.53;1785494;79;21217;-54
2020/12/30 11:32:01;;;;;;;10.08;5.65;;;;;;;8.92;76.22;100203.56;1781238;78;21151;-51
2020/12/30 11:34:29;;;;;;;11.50;5.60;;;;;;;8.93;76.38;100201.16;1770443;78;21022;-48
2020/12/30 11:36:57;;;;;;;12.18;6.42;;;;;;;8.95;76.49;100194.92;1746343;80;21183;-51
2020/12/30 11:39:26;;;;;;;10.08;6.87;;;;;;;8.96;76.37;100193.84;1734435;82;21213;-52
2020/12/30 11:41:53;;;;;;;11.28;6.28;;;;;;;8.95;76.31;100197.63;1707789;83;21254;-51
2020/12/30 11:44:22;;;;;;;12.50;6.42;;;;;;;8.96;76.35;100195.20;1753299;80;21590;-50